createdAt,value
2017-05-25T00:00:19.451Z,0
2017-05-25T00:01:13.439Z,0
2017-05-25T00:02:08.426Z,0
2017-05-25T00:03:01.949Z,0
2017-05-25T00:03:56.899Z,0
2017-05-25T00:04:56.449Z,0
2017-05-25T00:05:45.390Z,0
2017-05-25T00:06:38.869Z,0
2017-05-25T00:07:33.344Z,0
2017-05-25T00:08:21.819Z,0
2017-05-25T00:09:10.339Z,0
2017-05-25T00:10:03.930Z,0
2017-05-25T00:10:58.806Z,0
2017-05-25T00:11:47.322Z,0
2017-05-25T00:12:41.888Z,0
2017-05-25T00:13:35.426Z,0
2017-05-25T00:14:36.325Z,0
2017-05-25T00:15:24.876Z,0
2017-05-25T00:16:18.377Z,0
2017-05-25T00:17:18.372Z,0
2017-05-25T00:18:06.335Z,0
2017-05-25T00:18:49.245Z,0
2017-05-25T00:19:43.842Z,0
2017-05-25T00:20:43.476Z,0
2017-05-25T00:21:38.295Z,0
2017-05-25T00:22:32.295Z,0
2017-05-25T00:23:31.735Z,0
2017-05-25T00:24:25.724Z,0
2017-05-25T00:25:20.627Z,0
2017-05-25T00:26:27.208Z,0
2017-05-25T00:27:26.733Z,0
2017-05-25T00:28:20.638Z,0
2017-05-25T00:29:14.631Z,0
2017-05-25T00:30:08.533Z,0
2017-05-25T00:30:57.846Z,0
2017-05-25T00:31:52.204Z,0
2017-05-25T00:32:52.067Z,0
2017-05-25T00:33:52.506Z,0
2017-05-25T00:34:47.044Z,0
2017-05-25T00:35:41.532Z,0
2017-05-25T00:36:36.102Z,0
2017-05-25T00:37:35.622Z,0
2017-05-25T00:38:18.758Z,0
2017-05-25T00:39:07.096Z,0
2017-05-25T00:40:00.656Z,0
2017-05-25T00:40:49.557Z,0
2017-05-25T00:41:37.134Z,0
2017-05-25T00:42:25.248Z,0
2017-05-25T00:43:08.044Z,0
2017-05-25T00:43:55.593Z,0
2017-05-25T00:44:38.518Z,0
2017-05-25T00:45:26.070Z,0
2017-05-25T00:46:09.035Z,0
2017-05-25T00:46:56.546Z,0
2017-05-25T00:47:39.564Z,0
2017-05-25T00:48:27.075Z,0
2017-05-25T00:49:16.005Z,0
2017-05-25T00:50:03.546Z,0
2017-05-25T00:50:46.520Z,0
2017-05-25T00:51:34.035Z,0
2017-05-25T00:52:17.090Z,0
2017-05-25T00:53:04.529Z,0
2017-05-25T00:53:47.641Z,0
2017-05-25T00:54:40.974Z,0
2017-05-25T00:55:35.971Z,0
2017-05-25T00:56:30.478Z,0
2017-05-25T00:57:25.035Z,0
2017-05-25T00:58:20.068Z,0
2017-05-25T00:59:07.136Z,0
2017-05-25T00:59:55.009Z,0
2017-05-25T01:00:38.018Z,0
2017-05-25T01:01:25.520Z,0
2017-05-25T01:02:08.524Z,0
2017-05-25T01:02:55.983Z,0
2017-05-25T01:03:44.481Z,0
2017-05-25T01:04:26.984Z,0
2017-05-25T01:05:26.414Z,0
2017-05-25T01:06:14.445Z,0
2017-05-25T01:06:57.931Z,0
2017-05-25T01:07:50.948Z,0
2017-05-25T01:08:39.885Z,0
2017-05-25T01:09:28.505Z,0
2017-05-25T01:10:15.932Z,0
2017-05-25T01:11:09.918Z,0
2017-05-25T01:11:57.849Z,0
2017-05-25T01:12:46.883Z,0
2017-05-25T01:13:41.349Z,0
2017-05-25T01:14:34.885Z,0
2017-05-25T01:15:29.811Z,0
2017-05-25T01:16:23.328Z,0
2017-05-25T01:17:11.338Z,0
2017-05-25T01:17:59.265Z,0
2017-05-25T01:18:59.251Z,0
2017-05-25T01:19:53.211Z,0
2017-05-25T01:20:41.173Z,0
2017-05-25T01:21:30.087Z,0
2017-05-25T01:22:17.984Z,0
2017-05-25T01:23:06.562Z,0
2017-05-25T01:24:06.109Z,0
2017-05-25T01:24:49.086Z,0
2017-05-25T01:25:36.817Z,0
2017-05-25T01:26:20.074Z,0
2017-05-25T01:27:07.037Z,0
2017-05-25T01:27:50.024Z,0
2017-05-25T01:28:37.581Z,0
2017-05-25T01:29:31.646Z,0
2017-05-25T01:30:20.128Z,0
2017-05-25T01:31:13.497Z,0
2017-05-25T01:32:07.417Z,0
2017-05-25T01:33:13.322Z,0
2017-05-25T01:34:08.410Z,0
2017-05-25T01:35:01.927Z,0
2017-05-25T01:35:49.839Z,0
2017-05-25T01:36:37.722Z,0
2017-05-25T01:37:25.900Z,0
2017-05-25T01:38:13.703Z,0
2017-05-25T01:39:08.675Z,0
2017-05-25T01:40:08.162Z,0
2017-05-25T01:40:57.242Z,0
2017-05-25T01:41:51.788Z,0
2017-05-25T01:42:39.154Z,0
2017-05-25T01:43:27.147Z,0
2017-05-25T01:44:10.141Z,0
2017-05-25T01:44:57.595Z,0
2017-05-25T01:45:45.573Z,0
2017-05-25T01:46:34.556Z,0
2017-05-25T01:47:22.152Z,0
2017-05-25T01:48:16.025Z,0
2017-05-25T01:48:59.010Z,0
2017-05-25T01:49:46.541Z,0
2017-05-25T01:50:29.480Z,0
2017-05-25T01:51:22.982Z,0
2017-05-25T01:52:11.986Z,0
2017-05-25T01:53:06.533Z,0
2017-05-25T01:53:54.006Z,0
2017-05-25T01:54:37.007Z,0
2017-05-25T01:55:24.488Z,0
2017-05-25T01:56:12.500Z,0
2017-05-25T01:56:55.488Z,0
2017-05-25T01:57:43.993Z,0
2017-05-25T01:58:32.630Z,0
2017-05-25T01:59:20.025Z,0
2017-05-25T02:00:14.964Z,0
2017-05-25T02:01:09.527Z,0
2017-05-25T02:01:58.035Z,0
2017-05-25T02:02:46.557Z,0
2017-05-25T02:03:40.074Z,0
2017-05-25T02:04:34.118Z,0
2017-05-25T02:05:22.029Z,0
2017-05-25T02:06:11.113Z,0
2017-05-25T02:06:59.489Z,0
2017-05-25T02:07:46.983Z,0
2017-05-25T02:08:29.936Z,0
2017-05-25T02:09:24.524Z,0
2017-05-25T02:10:18.582Z,0
2017-05-25T02:11:17.956Z,0
2017-05-25T02:12:18.065Z,0
2017-05-25T02:13:17.916Z,0
2017-05-25T02:14:11.845Z,0
2017-05-25T02:15:06.864Z,0
2017-05-25T02:16:06.422Z,0
2017-05-25T02:17:00.281Z,0
2017-05-25T02:17:54.280Z,0
2017-05-25T02:18:54.178Z,0
2017-05-25T02:19:48.143Z,0
2017-05-25T02:20:43.109Z,0
2017-05-25T02:21:42.664Z,0
2017-05-25T02:22:31.549Z,0
2017-05-25T02:23:31.051Z,0
2017-05-25T02:24:19.059Z,0
2017-05-25T02:25:08.025Z,0
2017-05-25T02:25:55.557Z,0
2017-05-25T02:26:38.503Z,0
2017-05-25T02:27:33.283Z,0
2017-05-25T02:28:21.534Z,0
2017-05-25T02:29:21.083Z,0
2017-05-25T02:30:16.292Z,0
2017-05-25T02:31:15.653Z,0
2017-05-25T02:32:16.049Z,0
2017-05-25T02:33:09.452Z,0
2017-05-25T02:34:04.435Z,0
2017-05-25T02:35:03.944Z,4
2017-05-25T02:35:52.933Z,4
2017-05-25T02:36:52.505Z,4
2017-05-25T02:37:41.419Z,0
2017-05-25T02:38:40.921Z,0
2017-05-25T02:39:34.820Z,0
2017-05-25T02:40:28.823Z,4
2017-05-25T02:41:22.761Z,4
2017-05-25T02:42:22.716Z,4
2017-05-25T02:43:11.651Z,4
2017-05-25T02:44:06.178Z,8
2017-05-25T02:45:05.809Z,4
2017-05-25T02:45:59.612Z,8
2017-05-25T02:46:55.089Z,8
2017-05-25T02:47:54.242Z,4
2017-05-25T02:48:49.109Z,8
2017-05-25T02:49:48.606Z,8
2017-05-25T02:50:48.568Z,8
2017-05-25T02:51:42.514Z,12
2017-05-25T02:52:37.523Z,12
2017-05-25T02:53:31.989Z,12
2017-05-25T02:54:26.555Z,12
2017-05-25T02:55:20.018Z,16
2017-05-25T02:56:14.036Z,20
2017-05-25T02:57:07.989Z,20
2017-05-25T02:57:55.916Z,24
2017-05-25T02:58:50.020Z,28
2017-05-25T02:59:32.864Z,28
2017-05-25T03:00:20.421Z,32
2017-05-25T03:01:03.346Z,32
2017-05-25T03:01:51.473Z,40
2017-05-25T03:02:33.855Z,44
2017-05-25T03:03:21.417Z,48
2017-05-25T03:04:09.559Z,52
2017-05-25T03:04:58.348Z,60
2017-05-25T03:05:45.840Z,64
2017-05-25T03:06:33.819Z,68
2017-05-25T03:07:21.742Z,76
2017-05-25T03:08:04.792Z,80
2017-05-25T03:08:53.297Z,84
2017-05-25T03:09:41.791Z,92
2017-05-25T03:10:29.322Z,100
2017-05-25T03:11:12.209Z,108
2017-05-25T03:11:59.839Z,112
2017-05-25T03:12:42.771Z,124
2017-05-25T03:13:30.319Z,136
2017-05-25T03:14:13.297Z,148
2017-05-25T03:15:00.826Z,168
2017-05-25T03:15:48.752Z,192
2017-05-25T03:16:37.796Z,200
2017-05-25T03:17:25.206Z,212
2017-05-25T03:18:13.207Z,216
2017-05-25T03:18:56.182Z,228
2017-05-25T03:19:50.705Z,236
2017-05-25T03:20:51.231Z,244
2017-05-25T03:21:51.203Z,260
2017-05-25T03:22:44.633Z,268
2017-05-25T03:23:38.640Z,272
2017-05-25T03:24:33.587Z,288
2017-05-25T03:25:33.124Z,308
2017-05-25T03:26:28.031Z,332
2017-05-25T03:27:27.600Z,356
2017-05-25T03:28:27.580Z,396
2017-05-25T03:29:21.471Z,432
2017-05-25T03:30:21.464Z,464
2017-05-25T03:31:15.473Z,488
2017-05-25T03:32:09.374Z,508
2017-05-25T03:33:04.380Z,512
2017-05-25T03:34:03.840Z,536
2017-05-25T03:34:52.815Z,560
2017-05-25T03:35:52.371Z,588
2017-05-25T03:36:46.329Z,628
2017-05-25T03:37:40.734Z,668
2017-05-25T03:38:34.251Z,716
2017-05-25T03:39:29.130Z,748
2017-05-25T03:40:16.698Z,764
2017-05-25T03:41:04.662Z,764
2017-05-25T03:41:47.625Z,764
2017-05-25T03:42:35.133Z,784
2017-05-25T03:43:29.120Z,832
2017-05-25T03:44:30.034Z,908
2017-05-25T03:45:17.566Z,960
2017-05-25T03:46:12.573Z,1008
2017-05-25T03:47:12.083Z,1072
2017-05-25T03:48:06.034Z,1108
2017-05-25T03:48:55.026Z,1108
2017-05-25T03:49:49.550Z,1104
2017-05-25T03:50:49.081Z,1096
2017-05-25T03:51:38.011Z,1124
2017-05-25T03:52:32.516Z,1164
2017-05-25T03:53:27.067Z,1220
2017-05-25T03:54:26.770Z,1220
2017-05-25T03:55:14.477Z,1236
2017-05-25T03:56:02.503Z,1256
2017-05-25T03:56:56.977Z,1268
2017-05-25T03:57:44.440Z,1260
2017-05-25T03:58:38.384Z,1268
2017-05-25T03:59:26.422Z,1300
2017-05-25T04:00:21.303Z,1396
2017-05-25T04:01:08.849Z,1468
2017-05-25T04:02:09.761Z,1536
2017-05-25T04:02:58.330Z,1592
2017-05-25T04:03:57.843Z,1660
2017-05-25T04:04:52.898Z,1684
2017-05-25T04:05:52.304Z,1716
2017-05-25T04:06:47.225Z,1800
2017-05-25T04:07:46.792Z,1892
2017-05-25T04:08:41.716Z,1964
2017-05-25T04:09:30.297Z,1964
2017-05-25T04:10:18.928Z,1980
2017-05-25T04:11:18.366Z,2068
2017-05-25T04:12:13.278Z,2168
2017-05-25T04:13:06.790Z,2260
2017-05-25T04:13:55.779Z,2340
2017-05-25T04:14:49.254Z,2428
2017-05-25T04:15:49.241Z,2376
2017-05-25T04:16:44.208Z,2380
2017-05-25T04:17:32.737Z,2396
2017-05-25T04:18:27.275Z,2428
2017-05-25T04:19:14.744Z,2460
2017-05-25T04:19:57.774Z,2480
2017-05-25T04:20:45.300Z,2568
2017-05-25T04:21:28.293Z,2660
2017-05-25T04:22:21.733Z,2776
2017-05-25T04:23:04.730Z,2788
2017-05-25T04:24:04.253Z,2732
2017-05-25T04:25:04.204Z,2772
2017-05-25T04:25:53.139Z,2832
2017-05-25T04:26:47.772Z,2940
2017-05-25T04:27:36.253Z,3000
2017-05-25T04:28:23.752Z,3032
2017-05-25T04:29:17.649Z,3044
2017-05-25T04:30:06.701Z,3044
2017-05-25T04:31:00.168Z,3032
2017-05-25T04:31:48.188Z,3068
2017-05-25T04:32:31.152Z,3164
2017-05-25T04:33:30.649Z,3228
2017-05-25T04:34:18.564Z,3260
2017-05-25T04:35:12.543Z,3348
2017-05-25T04:36:06.471Z,3444
2017-05-25T04:37:00.446Z,3564
2017-05-25T04:37:55.474Z,3580
2017-05-25T04:38:43.995Z,3524
2017-05-25T04:39:37.506Z,3468
2017-05-25T04:40:31.452Z,3424
2017-05-25T04:41:25.419Z,3396
2017-05-25T04:42:19.425Z,3472
2017-05-25T04:43:13.342Z,3488
2017-05-25T04:44:13.264Z,3536
2017-05-25T04:45:07.239Z,3668
2017-05-25T04:46:08.208Z,3924
2017-05-25T04:47:01.759Z,4120
2017-05-25T04:47:49.653Z,4104
2017-05-25T04:48:32.651Z,4012
2017-05-25T04:49:26.170Z,3956
2017-05-25T04:50:14.721Z,4036
2017-05-25T04:50:57.139Z,4188
2017-05-25T04:51:44.661Z,4384
2017-05-25T04:52:44.592Z,4516
2017-05-25T04:53:39.569Z,4508
2017-05-25T04:54:34.068Z,4588
2017-05-25T04:55:28.640Z,4708
2017-05-25T04:56:16.140Z,4796
2017-05-25T04:56:59.310Z,4832
2017-05-25T04:57:52.620Z,4840
2017-05-25T04:58:47.620Z,4964
2017-05-25T04:59:42.138Z,5144
2017-05-25T05:00:35.607Z,5332
2017-05-25T05:01:29.599Z,5492
2017-05-25T05:02:24.572Z,5676
2017-05-25T05:03:19.083Z,5860
2017-05-25T05:04:13.652Z,5924
2017-05-25T05:05:08.150Z,5888
2017-05-25T05:05:55.670Z,5868
2017-05-25T05:06:56.014Z,5848
2017-05-25T05:07:44.043Z,5824
2017-05-25T05:08:26.534Z,5956
2017-05-25T05:09:14.038Z,6088
2017-05-25T05:10:08.010Z,6136
2017-05-25T05:10:56.997Z,6092
2017-05-25T05:11:50.514Z,5916
2017-05-25T05:12:39.503Z,5864
2017-05-25T05:13:32.993Z,5824
2017-05-25T05:14:27.019Z,5932
2017-05-25T05:15:15.929Z,6188
2017-05-25T05:16:15.416Z,6352
2017-05-25T05:17:15.425Z,6544
2017-05-25T05:18:10.373Z,6664
2017-05-25T05:19:04.917Z,6668
2017-05-25T05:19:52.446Z,6388
2017-05-25T05:20:41.322Z,6044
2017-05-25T05:21:35.918Z,5720
2017-05-25T05:22:29.445Z,6120
2017-05-25T05:23:29.513Z,6984
2017-05-25T05:24:23.458Z,7732
2017-05-25T05:25:18.369Z,7860
2017-05-25T05:26:12.320Z,8100
2017-05-25T05:27:00.772Z,8380
2017-05-25T05:28:00.330Z,8504
2017-05-25T05:28:55.282Z,8832
2017-05-25T05:29:49.825Z,9556
2017-05-25T05:30:55.408Z,9932
2017-05-25T05:31:55.857Z,9936
2017-05-25T05:32:55.275Z,10232
2017-05-25T05:33:49.204Z,10396
2017-05-25T05:34:44.180Z,10092
2017-05-25T05:35:43.754Z,10168
2017-05-25T05:36:32.639Z,10452
2017-05-25T05:37:38.171Z,10536
2017-05-25T05:38:33.138Z,10104
2017-05-25T05:39:21.689Z,10044
2017-05-25T05:40:15.128Z,10408
2017-05-25T05:41:09.141Z,10904
2017-05-25T05:41:57.755Z,10988
2017-05-25T05:42:46.126Z,10992
2017-05-25T05:43:34.587Z,10824
2017-05-25T05:44:22.203Z,10808
2017-05-25T05:45:11.090Z,10912
2017-05-25T05:46:04.589Z,11796
2017-05-25T05:46:59.171Z,12932
2017-05-25T05:47:52.546Z,13316
2017-05-25T05:48:41.472Z,13556
2017-05-25T05:49:36.002Z,13536
2017-05-25T05:50:30.536Z,13376
2017-05-25T05:51:25.068Z,13548
2017-05-25T05:52:19.618Z,13880
2017-05-25T05:53:13.138Z,13812
2017-05-25T05:54:08.075Z,13720
2017-05-25T05:55:02.610Z,14120
2017-05-25T05:55:57.151Z,14544
2017-05-25T05:56:50.634Z,14424
2017-05-25T05:57:44.680Z,14292
2017-05-25T05:58:33.558Z,14920
2017-05-25T05:59:27.237Z,15912
2017-05-25T06:00:21.059Z,17024
2017-05-25T06:01:09.199Z,17472
2017-05-25T06:02:04.049Z,18176
2017-05-25T06:03:03.551Z,20512
2017-05-25T06:03:57.488Z,23616
2017-05-25T06:04:57.454Z,27616
2017-05-25T06:05:51.425Z,29664
2017-05-25T06:06:45.357Z,39008
2017-05-25T06:07:40.603Z,26144
2017-05-25T06:08:33.845Z,24960
2017-05-25T06:09:27.825Z,27424
2017-05-25T06:10:22.729Z,32384
2017-05-25T06:11:17.296Z,26944
2017-05-25T06:12:11.818Z,25440
2017-05-25T06:13:00.314Z,23360
2017-05-25T06:13:53.923Z,19232
2017-05-25T06:14:42.878Z,18368
2017-05-25T06:15:42.555Z,18496
2017-05-25T06:16:36.372Z,25088
2017-05-25T06:17:25.368Z,28736
2017-05-25T06:18:18.826Z,30720
2017-05-25T06:19:02.344Z,24576
2017-05-25T06:20:01.354Z,25952
2017-05-25T06:20:50.671Z,38496
2017-05-25T06:21:43.856Z,29760
2017-05-25T06:22:32.825Z,15964
2017-05-25T06:23:26.647Z,16140
2017-05-25T06:24:20.293Z,16416
2017-05-25T06:25:14.262Z,14192
2017-05-25T06:26:14.304Z,15992
2017-05-25T06:26:57.782Z,30304
2017-05-25T06:27:50.696Z,50720
2017-05-25T06:28:38.673Z,53408
2017-05-25T06:29:39.025Z,53312
2017-05-25T06:30:27.073Z,35168
2017-05-25T06:31:27.982Z,46528
2017-05-25T06:32:27.405Z,48480
2017-05-25T06:33:22.487Z,49472
2017-05-25T06:34:16.981Z,48256
2017-05-25T06:35:04.366Z,43360
2017-05-25T06:35:59.073Z,41440
2017-05-25T06:36:53.686Z,47584
2017-05-25T06:37:47.167Z,47392
2017-05-25T06:38:41.392Z,44288
2017-05-25T06:39:35.157Z,48128
2017-05-25T06:40:35.052Z,42016
2017-05-25T06:41:24.054Z,37472
2017-05-25T06:42:17.585Z,59008
2017-05-25T06:43:17.557Z,48032
2017-05-25T06:44:05.518Z,59616
2017-05-25T06:44:54.509Z,56800
2017-05-25T06:45:48.032Z,61888
2017-05-25T06:46:49.065Z,56288
2017-05-25T06:47:42.937Z,58048
2017-05-25T06:48:36.616Z,27232
2017-05-25T06:49:30.550Z,17600
2017-05-25T06:50:25.475Z,13400
2017-05-25T06:51:14.037Z,13164
2017-05-25T06:52:02.509Z,13896
2017-05-25T06:52:57.066Z,15552
2017-05-25T06:53:56.690Z,53184
2017-05-25T06:54:44.582Z,52896
2017-05-25T06:55:38.500Z,53696
2017-05-25T06:56:32.923Z,53632
2017-05-25T06:57:26.808Z,55488
2017-05-25T06:58:14.466Z,54528
2017-05-25T06:59:03.402Z,55392
2017-05-25T06:59:57.196Z,54752
2017-05-25T07:00:50.925Z,50976
2017-05-25T07:01:44.958Z,61120
2017-05-25T07:02:32.868Z,61344
2017-05-25T07:03:21.845Z,54304
2017-05-25T07:04:21.694Z,60832
2017-05-25T07:05:15.427Z,63328
2017-05-25T07:06:03.604Z,63808
2017-05-25T07:06:57.997Z,64160
2017-05-25T07:07:46.423Z,66208
2017-05-25T07:08:39.927Z,65088
2017-05-25T07:09:34.345Z,66784
2017-05-25T07:10:21.807Z,67360
2017-05-25T07:11:22.255Z,64064
2017-05-25T07:12:10.787Z,71168
2017-05-25T07:12:58.539Z,71328
2017-05-25T07:13:52.720Z,46144
2017-05-25T07:14:41.614Z,76832
2017-05-25T07:15:35.258Z,43776
2017-05-25T07:16:28.746Z,28928
2017-05-25T07:17:23.159Z,29504
2017-05-25T07:18:17.161Z,31904
2017-05-25T07:19:11.119Z,31200
2017-05-25T07:20:10.580Z,24416
2017-05-25T07:21:04.557Z,21440
2017-05-25T07:22:04.855Z,22240
2017-05-25T07:22:53.122Z,21088
2017-05-25T07:23:52.855Z,24032
2017-05-25T07:24:47.850Z,21056
2017-05-25T07:25:42.107Z,56096
2017-05-25T07:26:30.536Z,60832
2017-05-25T07:27:18.142Z,58080
2017-05-25T07:28:13.144Z,23584
2017-05-25T07:29:06.578Z,44416
2017-05-25T07:29:55.601Z,58752
2017-05-25T07:30:50.161Z,64384
2017-05-25T07:31:56.132Z,59392
2017-05-25T07:32:44.109Z,67744
2017-05-25T07:33:39.066Z,69920
2017-05-25T07:34:32.635Z,76224
2017-05-25T07:35:26.534Z,81312
2017-05-25T07:36:20.572Z,46880
2017-05-25T07:37:14.513Z,36800
2017-05-25T07:38:09.589Z,33504
2017-05-25T07:39:03.051Z,68704
2017-05-25T07:39:51.971Z,26464
2017-05-25T07:40:45.490Z,25280
2017-05-25T07:41:39.479Z,25472
2017-05-25T07:42:33.509Z,25376
2017-05-25T07:43:27.418Z,24192
2017-05-25T07:44:16.434Z,26688
2017-05-25T07:45:16.049Z,30912
2017-05-25T07:46:09.966Z,35648
2017-05-25T07:46:58.021Z,29952
2017-05-25T07:47:46.860Z,33984
2017-05-25T07:48:41.384Z,66720
2017-05-25T07:49:34.958Z,58624
2017-05-25T07:50:17.898Z,29504
2017-05-25T07:51:05.417Z,26976
2017-05-25T07:51:59.541Z,25120
2017-05-25T07:52:53.466Z,24256
2017-05-25T07:53:52.942Z,24128
2017-05-25T07:54:47.007Z,24640
2017-05-25T07:55:47.294Z,24288
2017-05-25T07:56:40.861Z,26240
2017-05-25T07:57:36.185Z,28384
2017-05-25T07:58:29.628Z,33344
2017-05-25T07:59:18.645Z,46912
2017-05-25T08:00:07.327Z,42336
2017-05-25T08:01:00.414Z,62944
2017-05-25T08:02:02.063Z,36192
2017-05-25T08:02:54.951Z,65984
2017-05-25T08:03:49.355Z,74880
2017-05-25T08:04:42.876Z,65216
2017-05-25T08:05:36.873Z,62752
2017-05-25T08:06:31.352Z,62048
2017-05-25T08:07:25.888Z,32832
2017-05-25T08:08:25.713Z,29024
2017-05-25T08:09:19.393Z,30208
2017-05-25T08:10:14.633Z,33024
2017-05-25T08:11:09.310Z,35424
2017-05-25T08:12:02.851Z,33760
2017-05-25T08:13:02.530Z,35136
2017-05-25T08:13:56.285Z,32448
2017-05-25T08:14:45.554Z,35072
2017-05-25T08:15:39.816Z,42880
2017-05-25T08:16:34.039Z,44384
2017-05-25T08:17:33.256Z,30400
2017-05-25T08:18:27.506Z,27552
2017-05-25T08:19:22.518Z,28032
2017-05-25T08:20:11.258Z,29760
2017-05-25T08:21:04.257Z,37344
2017-05-25T08:21:53.627Z,31808
2017-05-25T08:22:47.282Z,96896
2017-05-25T08:23:36.239Z,80832
2017-05-25T08:24:29.346Z,66368
2017-05-25T08:25:24.286Z,46368
2017-05-25T08:26:18.240Z,25056
2017-05-25T08:27:13.235Z,36128
2017-05-25T08:28:06.606Z,26368
2017-05-25T08:28:54.567Z,73664
2017-05-25T08:29:48.797Z,71008
2017-05-25T08:30:48.233Z,74560
2017-05-25T08:31:42.476Z,75008
2017-05-25T08:32:37.757Z,75680
2017-05-25T08:33:24.735Z,76320
2017-05-25T08:34:19.134Z,76544
2017-05-25T08:35:14.092Z,77984
2017-05-25T08:36:07.525Z,79168
2017-05-25T08:36:55.622Z,78944
2017-05-25T08:37:43.904Z,79104
2017-05-25T08:38:37.582Z,78496
2017-05-25T08:39:31.536Z,80896
2017-05-25T08:40:19.559Z,80960
2017-05-25T08:41:13.498Z,80992
2017-05-25T08:42:08.553Z,81664
2017-05-25T08:42:57.637Z,80512
2017-05-25T08:43:50.619Z,80416
2017-05-25T08:44:38.544Z,81216
2017-05-25T08:45:27.535Z,78368
2017-05-25T08:46:22.064Z,78016
2017-05-25T08:47:15.633Z,76416
2017-05-25T08:48:03.892Z,77120
2017-05-25T08:48:51.599Z,74240
2017-05-25T08:49:46.565Z,78688
2017-05-25T08:50:47.095Z,80352
2017-05-25T08:51:35.640Z,82144
2017-05-25T08:52:29.184Z,81568
2017-05-25T08:53:24.208Z,82240
2017-05-25T08:54:11.773Z,81984
2017-05-25T08:54:59.762Z,86304
2017-05-25T08:55:48.717Z,88608
2017-05-25T08:56:43.280Z,76992
2017-05-25T08:57:37.790Z,81664
2017-05-25T08:58:43.482Z,85280
2017-05-25T08:59:31.313Z,62720
2017-05-25T09:00:26.301Z,75168
2017-05-25T09:01:20.884Z,39616
2017-05-25T09:02:09.405Z,46272
2017-05-25T09:03:09.932Z,27520
2017-05-25T09:04:03.587Z,23808
2017-05-25T09:04:52.501Z,77824
2017-05-25T09:05:40.946Z,49408
2017-05-25T09:06:35.462Z,33984
2017-05-25T09:07:29.013Z,43648
2017-05-25T09:08:23.022Z,22912
2017-05-25T09:09:10.976Z,80832
2017-05-25T09:10:05.985Z,72000
2017-05-25T09:10:54.508Z,75936
2017-05-25T09:11:48.085Z,79008
2017-05-25T09:12:42.002Z,80160
2017-05-25T09:13:25.109Z,80384
2017-05-25T09:14:13.696Z,77696
2017-05-25T09:15:07.149Z,78656
2017-05-25T09:16:01.151Z,79328
2017-05-25T09:16:49.054Z,76288
2017-05-25T09:17:43.080Z,81024
2017-05-25T09:18:31.094Z,81664
2017-05-25T09:19:25.081Z,80320
2017-05-25T09:20:18.993Z,77952
2017-05-25T09:21:13.992Z,74432
2017-05-25T09:22:08.542Z,71936
2017-05-25T09:23:02.998Z,70368
2017-05-25T09:23:57.618Z,70912
2017-05-25T09:24:52.147Z,71744
2017-05-25T09:25:51.646Z,74400
2017-05-25T09:26:40.643Z,77792
2017-05-25T09:27:40.215Z,75648
2017-05-25T09:28:28.167Z,77216
2017-05-25T09:29:23.197Z,79104
2017-05-25T09:30:17.755Z,86592
2017-05-25T09:31:05.235Z,85472
2017-05-25T09:32:00.311Z,84000
2017-05-25T09:32:53.779Z,75200
2017-05-25T09:33:41.779Z,84320
2017-05-25T09:34:30.727Z,79360
2017-05-25T09:35:24.298Z,70560
2017-05-25T09:36:13.283Z,73024
2017-05-25T09:37:00.906Z,70464
2017-05-25T09:37:48.806Z,64448
2017-05-25T09:38:37.808Z,71104
2017-05-25T09:39:32.346Z,74112
2017-05-25T09:40:26.950Z,78336
2017-05-25T09:41:20.437Z,80096
2017-05-25T09:42:09.391Z,78240
2017-05-25T09:42:56.960Z,76992
2017-05-25T09:43:50.993Z,74848
2017-05-25T09:44:44.940Z,72096
2017-05-25T09:45:40.005Z,72096
2017-05-25T09:46:39.495Z,73504
2017-05-25T09:47:28.430Z,74848
2017-05-25T09:48:21.960Z,75424
2017-05-25T09:49:11.007Z,81792
2017-05-25T09:50:05.509Z,82432
2017-05-25T09:51:05.090Z,80128
2017-05-25T09:51:59.049Z,81568
2017-05-25T09:52:53.068Z,75840
2017-05-25T09:53:42.002Z,14800
2017-05-25T09:54:30.584Z,81408
2017-05-25T09:55:19.097Z,85248
2017-05-25T09:56:13.671Z,16464
2017-05-25T09:57:07.148Z,83232
2017-05-25T09:58:01.169Z,81504
2017-05-25T09:58:50.187Z,80384
2017-05-25T09:59:43.678Z,81120
2017-05-25T10:00:31.669Z,84128
2017-05-25T10:01:19.688Z,85088
2017-05-25T10:02:08.574Z,88064
2017-05-25T10:03:02.250Z,92576
2017-05-25T10:03:56.170Z,93184
2017-05-25T10:04:45.133Z,89760
2017-05-25T10:05:38.668Z,87296
2017-05-25T10:06:33.649Z,89248
2017-05-25T10:07:28.193Z,84064
2017-05-25T10:08:27.769Z,84960
2017-05-25T10:09:16.729Z,87744
2017-05-25T10:10:10.328Z,50944
2017-05-25T10:11:04.305Z,58912
2017-05-25T10:11:52.256Z,29664
2017-05-25T10:12:46.222Z,69600
2017-05-25T10:13:46.179Z,82752
2017-05-25T10:14:40.245Z,85824
2017-05-25T10:15:29.202Z,73504
2017-05-25T10:16:16.770Z,93472
2017-05-25T10:17:05.707Z,94816
2017-05-25T10:17:58.711Z,14180
2017-05-25T10:18:58.663Z,91712
2017-05-25T10:19:52.678Z,91584
2017-05-25T10:20:52.650Z,86176
2017-05-25T10:21:46.739Z,86400
2017-05-25T10:22:40.615Z,82432
2017-05-25T10:23:29.589Z,87552
2017-05-25T10:24:29.153Z,88800
2017-05-25T10:25:12.112Z,88288
2017-05-25T10:26:05.713Z,88160
2017-05-25T10:26:54.651Z,89056
2017-05-25T10:27:48.211Z,89600
2017-05-25T10:28:36.167Z,15244
2017-05-25T10:29:24.193Z,15080
2017-05-25T10:30:18.181Z,87072
2017-05-25T10:31:12.169Z,84096
2017-05-25T10:32:06.182Z,85728
2017-05-25T10:33:01.213Z,86432
2017-05-25T10:34:00.662Z,83680
2017-05-25T10:34:54.714Z,16056
2017-05-25T10:35:42.636Z,85696
2017-05-25T10:36:30.677Z,87968
2017-05-25T10:37:24.593Z,86784
2017-05-25T10:38:18.578Z,93600
2017-05-25T10:39:12.581Z,92704
2017-05-25T10:40:07.610Z,90176
2017-05-25T10:41:07.198Z,86816
2017-05-25T10:42:02.187Z,51008
2017-05-25T10:43:01.645Z,103904
2017-05-25T10:43:55.651Z,103936
2017-05-25T10:44:44.649Z,84672
2017-05-25T10:45:38.172Z,99744
2017-05-25T10:46:26.148Z,99328
2017-05-25T10:47:09.124Z,98080
2017-05-25T10:48:02.638Z,96032
2017-05-25T10:49:02.808Z,99968
2017-05-25T10:49:56.645Z,102144
2017-05-25T10:50:44.571Z,104256
2017-05-25T10:51:38.583Z,104992
2017-05-25T10:52:27.601Z,98400
2017-05-25T10:53:21.157Z,96736
2017-05-25T10:54:09.122Z,92608
2017-05-25T10:55:03.110Z,87488
2017-05-25T10:55:51.068Z,85504
2017-05-25T10:56:34.046Z,85056
2017-05-25T10:57:27.587Z,89472
2017-05-25T10:58:22.608Z,96384
2017-05-25T10:59:16.190Z,99168
2017-05-25T11:00:10.140Z,27072
2017-05-25T11:01:04.151Z,57408
2017-05-25T11:01:58.054Z,20096
2017-05-25T11:02:46.030Z,43200
2017-05-25T11:03:29.053Z,76384
2017-05-25T11:04:17.699Z,68800
2017-05-25T11:05:11.146Z,71392
2017-05-25T11:05:59.121Z,70816
2017-05-25T11:06:48.069Z,0
2017-05-25T11:07:42.645Z,24032
2017-05-25T11:08:36.311Z,82560
2017-05-25T11:09:30.476Z,88800
2017-05-25T11:10:18.127Z,93280
2017-05-25T11:11:18.162Z,99584
2017-05-25T11:12:07.123Z,104064
2017-05-25T11:12:54.670Z,100320
2017-05-25T11:13:42.685Z,92384
2017-05-25T11:14:37.945Z,85664
2017-05-25T11:15:43.220Z,78560
2017-05-25T11:16:38.207Z,76704
2017-05-25T11:17:32.757Z,77376
2017-05-25T11:18:32.283Z,83584
2017-05-25T11:19:26.235Z,90304
2017-05-25T11:20:27.071Z,94176
2017-05-25T11:21:21.262Z,97536
2017-05-25T11:22:08.800Z,97984
2017-05-25T11:23:02.780Z,91232
2017-05-25T11:23:50.752Z,95712
2017-05-25T11:24:44.776Z,92480
2017-05-25T11:25:33.007Z,90304
2017-05-25T11:26:20.693Z,86528
2017-05-25T11:27:15.691Z,86272
2017-05-25T11:28:04.265Z,82272
2017-05-25T11:28:58.805Z,81408
2017-05-25T11:29:58.390Z,84032
2017-05-25T11:30:52.350Z,88576
2017-05-25T11:31:40.334Z,92192
2017-05-25T11:32:29.300Z,97568
2017-05-25T11:33:17.850Z,101696
2017-05-25T11:34:17.404Z,103520
2017-05-25T11:35:11.398Z,98016
2017-05-25T11:35:59.601Z,95104
2017-05-25T11:36:42.350Z,94304
2017-05-25T11:37:35.881Z,90976
2017-05-25T11:38:18.843Z,87904
2017-05-25T11:39:12.432Z,84544
2017-05-25T11:40:06.354Z,82688
2017-05-25T11:40:55.391Z,81792
2017-05-25T11:41:54.953Z,79616
2017-05-25T11:42:48.914Z,79712
2017-05-25T11:43:37.948Z,80576
2017-05-25T11:44:32.456Z,87904